Time;durP1;ratioP1;P1;durP2;ratioP2;P2;SDS_P1;SDS_P2;PMS_P1;PMS_P2;Temp;Humidity;BMP_temperature;BMP_pressure;BME280_temperature;BME280_humidity;BME280_pressure;Samples;Min_cycle;Max_cycle;Signal;HPM_P1;HPM_P2
2022/04/17 00:00:20;;;;;;;1.20;1.10;;;1.90;1.40;;;2.58;100.00;96518.34;647411;212;34255;-74
2022/04/17 00:03:02;;;;;;;1.37;1.27;;;1.80;1.40;;;2.57;100.00;96522.91;646595;212;42712;-74
2022/04/17 00:05:44;;;;;;;1.20;0.80;;;1.80;1.40;;;2.56;100.00;96515.50;649784;212;31574;-74
2022/04/17 00:08:27;;;;;;;3.75;1.62;;;1.80;1.40;;;2.50;100.00;96513.64;646688;212;31535;-73
2022/04/17 00:11:07;;;;;;;0.80;0.80;;;1.70;1.40;;;2.42;100.00;96511.13;648056;216;31871;-74
2022/04/17 00:13:49;;;;;;;0.85;0.85;;;1.60;1.40;;;2.39;100.00;96516.25;645851;212;31590;-73
2022/04/17 00:16:31;;;;;;;2.03;1.10;;;1.60;1.40;;;2.36;100.00;96513.32;650127;212;31552;-74
2022/04/17 00:19:13;;;;;;;2.22;1.20;;;1.50;1.40;;;2.31;100.00;96518.59;645504;212;32002;-74
2022/04/17 00:21:54;;;;;;;1.00;1.00;;;1.40;1.40;;;2.20;100.00;96520.08;648473;216;31591;-73
2022/04/17 00:24:39;;;;;;;0.60;0.60;;;1.30;1.40;;;2.16;100.00;96514.67;647233;216;31889;-73
2022/04/17 00:27:20;;;;;;;0.98;0.57;;;1.20;1.40;;;2.06;100.00;96514.94;648618;212;31570;-73
2022/04/17 00:30:02;;;;;;;1.60;1.00;;;1.20;1.40;;;2.04;100.00;96517.03;648052;216;31581;-74
2022/04/17 00:32:44;;;;;;;1.35;1.25;;;1.20;1.40;;;2.04;100.00;96519.50;647130;216;31592;-74
2022/04/17 00:35:50;;;;;;;1.40;1.30;;;1.30;1.40;;;2.06;100.00;96511.95;621955;226;31882;-74
2022/04/17 00:38:33;;;;;;;1.10;1.00;;;1.20;1.40;;;2.12;100.00;96509.44;645993;216;31592;-73
2022/04/17 00:41:19;;;;;;;0.50;0.50;;;1.30;1.40;;;2.22;100.00;96513.40;645782;216;42511;-74
2022/04/17 00:44:01;;;;;;;1.25;0.88;;;1.40;1.40;;;2.15;100.00;96509.73;649361;212;31498;-73
2022/04/17 00:46:44;;;;;;;1.20;1.10;;;1.30;1.40;;;2.22;100.00;96507.14;649736;212;31593;-74
2022/04/17 00:49:27;;;;;;;0.80;0.70;;;1.20;1.40;;;2.17;100.00;96505.83;648131;216;31524;-73
2022/04/17 00:52:11;;;;;;;1.20;0.90;;;1.20;1.40;;;2.13;100.00;96504.86;647549;216;31554;-73
2022/04/17 00:54:54;;;;;;;1.70;1.50;;;1.20;1.40;;;2.07;100.00;96500.09;622045;226;42651;-75
2022/04/17 00:57:35;;;;;;;1.90;1.30;;;1.00;1.40;;;2.01;100.00;96494.02;618237;226;42505;-74
2022/04/17 01:00:19;;;;;;;2.50;1.40;;;1.00;1.40;;;1.94;100.00;96497.46;645493;216;31749;-74
2022/04/17 01:03:02;;;;;;;1.23;1.12;;;1.00;1.40;;;1.85;100.00;96495.92;647501;216;31649;-72
2022/04/17 01:05:46;;;;;;;3.35;2.20;;;0.90;1.40;;;1.79;100.00;96495.33;646836;216;42153;-74
2022/04/17 01:08:27;;;;;;;2.50;1.80;;;0.90;1.40;;;1.73;100.00;96493.29;636938;216;31685;-74
2022/04/17 01:11:09;;;;;;;1.98;1.87;;;0.80;1.40;;;1.72;100.00;96490.96;646932;212;32158;-73
2022/04/17 01:13:52;;;;;;;2.70;2.17;;;0.60;1.40;;;1.69;100.00;96485.42;620554;226;43169;-74
2022/04/17 01:16:34;;;;;;;1.40;1.20;;;0.50;1.40;;;1.58;100.00;96481.33;619616;226;32027;-73
2022/04/17 01:19:15;;;;;;;1.90;0.80;;;0.60;1.40;;;1.61;100.00;96481.80;647328;216;31981;-74
2022/04/17 01:21:57;;;;;;;2.28;1.50;;;0.50;1.40;;;1.59;100.00;96480.41;646614;216;31672;-74
2022/04/17 01:27:28;;;;;;;1.42;0.82;;;0.30;1.40;;;1.56;100.00;96470.80;661093;211;31520;-72
2022/04/17 01:30:10;;;;;;;0.95;0.90;;;0.40;1.40;;;1.35;100.00;96469.24;648328;212;31480;-73
2022/04/17 01:32:52;;;;;;;0.70;0.70;;;0.30;1.40;;;1.36;100.00;96472.81;646450;212;31564;-73
2022/04/17 01:35:51;;;;;;;2.10;0.60;;;0.40;1.40;;;1.33;100.00;96468.88;649778;216;31551;-74
2022/04/17 01:38:33;;;;;;;1.17;1.17;;;0.30;1.40;;;1.16;100.00;96467.80;636155;222;32066;-73
2022/04/17 01:41:18;;;;;;;0.90;0.90;;;0.20;1.40;;;0.96;100.00;96470.64;646997;216;31503;-73
2022/04/17 01:43:57;;;;;;;1.00;0.90;;;0.10;1.40;;;0.76;100.00;96457.23;648237;216;31489;-73
2022/04/17 01:46:40;;;;;;;1.80;1.35;;;0.00;1.40;;;0.79;100.00;96456.66;618590;222;32476;-74
2022/04/17 01:49:23;;;;;;;1.30;0.80;;;-0.10;1.40;;;0.81;100.00;96453.22;650162;216;31560;-73
2022/04/17 01:52:04;;;;;;;1.00;0.70;;;-0.10;1.40;;;0.91;100.00;96455.45;646486;216;31538;-73
2022/04/17 01:54:46;;;;;;;2.10;1.90;;;-0.10;1.40;;;0.85;100.00;96457.75;648724;213;32344;-74
2022/04/17 01:57:27;;;;;;;1.60;1.50;;;-0.10;1.40;;;0.82;100.00;96452.83;648519;216;31677;-73
2022/04/17 02:00:11;;;;;;;1.08;0.90;;;0.00;1.40;;;0.73;100.00;96445.64;651031;216;31514;-74
2022/04/17 02:02:56;;;;;;;1.65;1.42;;;-0.10;1.40;;;0.89;100.00;96438.79;620818;226;31887;-73
2022/04/17 02:05:38;;;;;;;2.20;0.88;;;0.00;1.40;;;1.01;100.00;96432.53;648848;216;31854;-73
2022/04/17 02:08:19;;;;;;;1.30;1.20;;;0.10;1.40;;;0.96;100.00;96432.01;636976;212;31895;-74
2022/04/17 02:11:04;;;;;;;2.50;0.80;;;0.10;1.40;;;1.08;100.00;96429.38;619971;226;32457;-73
2022/04/17 02:13:46;;;;;;;2.30;1.70;;;0.20;1.40;;;1.22;100.00;96432.19;647073;216;31511;-73
2022/04/17 02:16:28;;;;;;;1.60;0.80;;;0.20;1.40;;;1.26;100.00;96434.06;647821;216;32047;-74
2022/04/17 02:19:09;;;;;;;0.57;0.57;;;0.20;1.40;;;1.33;100.00;96437.77;618945;226;31944;-73
2022/04/17 02:21:54;;;;;;;0.70;0.70;;;0.20;1.40;;;1.36;100.00;96429.80;645982;216;31625;-74
2022/04/17 02:24:36;;;;;;;4.35;1.15;;;0.20;1.40;;;1.30;100.00;96424.65;619516;226;31910;-72
2022/04/17 02:27:17;;;;;;;2.40;1.20;;;0.20;1.40;;;1.20;100.00;96426.95;649622;216;31555;-73
2022/04/17 02:30:02;;;;;;;7.60;1.40;;;0.10;1.40;;;1.23;100.00;96422.11;647593;216;31603;-74
2022/04/17 02:32:44;;;;;;;2.08;0.75;;;0.10;1.40;;;1.17;100.00;96412.22;647661;216;31931;-74
2022/04/17 02:35:51;;;;;;;1.62;1.20;;;0.00;1.40;;;1.16;100.00;96416.88;648711;212;31585;-73
2022/04/17 02:38:36;;;;;;;1.00;0.90;;;-0.10;1.40;;;1.10;100.00;96421.95;619961;223;31921;-74
2022/04/17 02:41:18;;;;;;;1.77;1.20;;;-0.10;1.40;;;0.93;100.00;96418.73;648694;216;31599;-74
2022/04/17 02:44:00;;;;;;;1.30;0.90;;;-0.20;1.40;;;1.04;100.00;96418.79;621684;222;31870;-73
2022/04/17 02:49:31;;;;;;;2.10;1.10;;;-0.10;1.40;;;1.08;100.00;96426.91;646755;216;34447;-73
2022/04/17 02:52:14;;;;;;;3.40;1.10;;;0.00;1.40;;;1.07;100.00;96418.18;646294;216;42155;-73
2022/04/17 02:54:55;;;;;;;0.93;0.93;;;0.00;1.40;;;0.95;100.00;96413.06;646762;212;31530;-73
2022/04/17 02:57:37;;;;;;;1.73;0.70;;;-0.20;1.40;;;0.94;100.00;96407.62;648305;212;31536;-74
2022/04/17 03:00:18;;;;;;;1.20;0.95;;;-0.10;1.40;;;0.90;100.00;96410.42;647232;216;31510;-73
2022/04/17 03:05:50;;;;;;;1.77;1.30;;;-0.10;1.40;;;0.82;100.00;96401.00;648351;216;31545;-73
2022/04/17 03:08:32;;;;;;;1.17;1.05;;;-0.10;1.40;;;0.94;100.00;96400.10;650178;212;32119;-73
2022/04/17 03:11:13;;;;;;;1.10;1.05;;;-0.10;1.40;;;0.69;100.00;96400.62;645065;216;31627;-72
2022/04/17 03:13:56;;;;;;;0.70;0.60;;;-0.20;1.40;;;0.57;100.00;96400.95;648799;216;31605;-74
2022/04/17 03:16:38;;;;;;;1.60;1.50;;;-0.30;1.40;;;0.53;100.00;96407.43;647569;216;31498;-72
2022/04/17 03:19:23;;;;;;;1.00;0.90;;;-0.40;1.40;;;0.64;100.00;96397.27;647930;212;31573;-75
2022/04/17 03:22:04;;;;;;;0.60;0.60;;;-0.40;1.40;;;0.52;100.00;96397.93;646115;212;31553;-74
2022/04/17 03:24:46;;;;;;;1.15;0.82;;;-0.50;1.40;;;0.44;100.00;96389.78;646886;216;33245;-74
2022/04/17 03:27:28;;;;;;;2.15;1.30;;;-0.60;1.40;;;0.50;100.00;96390.81;648566;216;31639;-72
2022/04/17 03:30:10;;;;;;;1.30;1.00;;;-0.50;1.40;;;0.43;100.00;96392.35;647244;216;31557;-73
2022/04/17 03:32:52;;;;;;;0.60;0.60;;;-0.60;1.40;;;0.29;100.00;96399.17;646373;212;31550;-73
2022/04/17 03:35:54;;;;;;;0.57;0.57;;;-0.70;1.40;;;0.27;100.00;96401.08;646255;216;31776;-74
2022/04/17 03:38:36;;;;;;;1.40;0.80;;;-0.70;1.40;;;0.22;100.00;96388.27;652235;216;31517;-72
2022/04/17 03:41:17;;;;;;;0.80;0.80;;;-0.80;1.40;;;0.17;100.00;96387.86;648686;213;31603;-73
2022/04/17 03:43:59;;;;;;;2.03;1.15;;;-0.80;1.40;;;0.20;100.00;96380.80;646225;216;32159;-73
2022/04/17 03:46:44;;;;;;;1.70;0.88;;;-0.80;1.40;;;0.21;100.00;96382.20;647282;216;31850;-74
2022/04/17 03:49:26;;;;;;;1.90;0.90;;;-0.90;1.40;;;0.01;100.00;96386.56;649280;213;31487;-74
2022/04/17 03:52:08;;;;;;;1.20;1.10;;;-1.00;1.40;;;-0.08;100.00;96386.79;646225;216;31564;-73
2022/04/17 03:54:49;;;;;;;1.10;0.90;;;-1.10;1.40;;;-0.25;100.00;96385.96;647803;212;31734;-74
2022/04/17 03:57:31;;;;;;;2.10;1.10;;;-1.20;1.40;;;-0.24;100.00;96388.87;647577;212;31794;-73
2022/04/17 04:00:14;;;;;;;1.80;1.00;;;-1.20;1.40;;;-0.37;100.00;96383.62;617442;229;31899;-74
2022/04/17 04:02:57;;;;;;;2.53;1.20;;;-1.40;1.40;;;-0.57;100.00;96384.39;617057;226;32456;-74
2022/04/17 04:05:43;;;;;;;1.08;0.80;;;-1.50;1.40;;;-0.71;100.00;96383.57;615076;224;31883;-74
2022/04/17 04:08:23;;;;;;;1.60;1.50;;;-1.60;1.40;;;-0.74;100.00;96381.27;637772;212;31692;-74
2022/04/17 04:11:06;;;;;;;0.82;0.77;;;-1.70;1.40;;;-0.53;100.00;96388.77;649251;212;31589;-72
2022/04/17 04:13:48;;;;;;;1.60;1.30;;;-1.40;1.40;;;-0.33;100.00;96390.30;648011;216;31626;-73
2022/04/17 04:16:30;;;;;;;1.20;1.10;;;-1.20;1.40;;;-0.37;100.00;96387.13;646229;212;31538;-73
2022/04/17 04:19:13;;;;;;;0.68;0.62;;;-1.30;1.40;;;-0.30;100.00;96393.98;651523;216;31882;-72
2022/04/17 04:21:54;;;;;;;0.90;0.90;;;-1.10;1.40;;;-0.27;100.00;96402.19;648460;212;31731;-73
2022/04/17 04:24:35;;;;;;;0.73;0.73;;;-1.20;1.40;;;-0.19;100.00;96398.83;649290;212;31637;-73
2022/04/17 04:30:06;;;;;;;0.70;0.70;;;-1.20;1.40;;;-0.11;100.00;96395.90;637595;217;31655;-73
2022/04/17 04:35:51;;;;;;;2.25;1.40;;;-1.10;1.40;;;-0.28;100.00;96391.06;650970;216;31729;-74
2022/04/17 04:38:35;;;;;;;2.65;0.60;;;-1.20;1.40;;;-0.43;100.00;96382.61;648794;212;31560;-74
2022/04/17 04:41:18;;;;;;;2.70;1.00;;;-1.30;1.40;;;-0.48;100.00;96377.11;649250;212;31483;-72
2022/04/17 04:44:00;;;;;;;0.80;0.80;;;-1.30;1.40;;;-0.54;100.00;96378.62;649509;212;31717;-74
2022/04/17 04:46:43;;;;;;;2.65;0.75;;;-1.30;1.40;;;-0.47;100.00;96388.34;647810;212;31634;-72
2022/04/17 04:49:29;;;;;;;1.70;1.60;;;-1.20;1.40;;;-0.31;100.00;96384.25;647636;212;31553;-72
2022/04/17 04:52:11;;;;;;;2.00;0.75;;;-1.10;1.40;;;-0.29;100.00;96379.89;648810;212;32230;-73
2022/04/17 04:54:53;;;;;;;1.60;0.95;;;-1.10;1.40;;;-0.29;100.00;96371.70;644523;216;31704;-74
2022/04/17 04:57:36;;;;;;;1.62;1.12;;;-1.10;1.40;;;-0.30;100.00;96372.61;618180;226;31936;-74
2022/04/17 05:00:21;;;;;;;1.80;0.90;;;-1.10;1.40;;;-0.22;100.00;96375.88;650266;216;31555;-73
2022/04/17 05:03:03;;;;;;;1.70;1.00;;;-1.10;1.40;;;-0.19;100.00;96378.21;647734;212;31531;-73
2022/04/17 05:05:44;;;;;;;1.20;0.85;;;-1.10;1.40;;;-0.12;100.00;96381.58;645914;216;31986;-72
2022/04/17 05:08:29;;;;;;;2.40;1.00;;;-1.00;1.40;;;0.04;100.00;96381.52;637436;216;32250;-74
2022/04/17 05:11:10;;;;;;;2.20;1.00;;;-0.80;1.40;;;0.30;100.00;96379.16;647284;212;31640;-72
2022/04/17 05:13:52;;;;;;;1.30;0.50;;;-0.50;1.40;;;0.45;100.00;96373.96;644618;212;31760;-73
2022/04/17 05:21:58;;;;;;;2.50;0.90;;;-0.80;1.40;;;0.25;100.00;96385.97;644630;216;31529;-73
2022/04/17 05:24:38;;;;;;;1.25;0.93;;;-0.80;1.40;;;0.25;100.00;96381.71;648220;216;31570;-74
2022/04/17 05:27:22;;;;;;;0.77;0.52;;;-0.70;1.40;;;0.34;100.00;96393.88;647700;216;31557;-73
2022/04/17 05:30:07;;;;;;;0.60;0.60;;;-0.70;1.40;;;0.46;100.00;96395.84;645529;216;31655;-74
2022/04/17 05:32:48;;;;;;;2.35;0.85;;;-0.50;1.40;;;0.55;100.00;96388.40;649476;216;33014;-73
2022/04/17 05:35:51;;;;;;;1.30;1.20;;;-0.50;1.40;;;0.53;100.00;96372.50;646255;216;31582;-74
2022/04/17 05:38:34;;;;;;;1.45;1.35;;;-0.40;1.40;;;0.78;100.00;96371.30;647185;212;31513;-75
2022/04/17 05:41:19;;;;;;;2.00;0.90;;;-0.30;1.40;;;0.97;100.00;96372.33;647535;212;31571;-74
2022/04/17 05:44:00;;;;;;;0.90;0.70;;;-0.10;1.40;;;1.01;100.00;96367.76;647388;212;31688;-74
2022/04/17 05:46:42;;;;;;;1.40;1.20;;;0.00;1.40;;;1.12;100.00;96365.28;649352;216;31619;-74
2022/04/17 05:49:27;;;;;;;2.00;1.70;;;0.20;1.40;;;1.35;100.00;96371.26;645809;212;31548;-73
2022/04/17 05:52:08;;;;;;;2.00;1.10;;;0.50;1.40;;;1.63;100.00;96366.47;645562;216;31695;-73
2022/04/17 05:54:50;;;;;;;1.10;1.00;;;0.90;1.40;;;1.83;100.00;96370.08;650434;216;42748;-72
2022/04/17 05:57:32;;;;;;;1.00;1.00;;;1.10;1.40;;;2.09;100.00;96369.05;646770;212;42781;-73
2022/04/17 06:00:16;;;;;;;1.95;1.85;;;1.30;1.40;;;2.32;100.00;96374.33;621722;226;43034;-74
2022/04/17 06:02:56;;;;;;;1.12;1.05;;;1.40;1.40;;;2.47;100.00;96371.60;647746;212;42169;-72
2022/04/17 06:05:37;;;;;;;2.50;1.50;;;1.60;1.40;;;2.63;100.00;96369.77;646231;216;31582;-73
2022/04/17 06:08:19;;;;;;;2.87;1.58;;;1.70;1.40;;;2.85;100.00;96362.30;638107;216;31715;-74
2022/04/17 06:11:04;;;;;;;1.90;1.58;;;2.20;1.40;;;3.09;100.00;96366.87;648403;216;31530;-74
2022/04/17 06:13:46;;;;;;;0.82;0.80;;;2.50;1.40;;;3.35;100.00;96368.06;647173;212;31563;-72
2022/04/17 06:16:28;;;;;;;1.60;1.40;;;2.80;1.40;;;3.60;100.00;96367.58;648998;212;31538;-72
2022/04/17 06:19:10;;;;;;;1.50;1.40;;;3.10;1.40;;;3.85;100.00;96366.75;620675;226;32025;-72
2022/04/17 06:21:52;;;;;;;7.10;1.50;;;3.30;1.40;;;4.06;100.00;96370.94;621114;226;32184;-74
2022/04/17 06:24:34;;;;;;;4.70;1.52;;;3.60;1.40;;;4.14;100.00;96364.28;647760;216;31570;-73
2022/04/17 06:27:16;;;;;;;1.40;1.30;;;3.70;1.40;;;4.27;100.00;96365.01;650792;212;31537;-73
2022/04/17 06:29:58;;;;;;;1.50;1.40;;;3.80;1.40;;;4.43;100.00;96370.14;649730;216;31561;-73
2022/04/17 06:32:40;;;;;;;1.25;1.15;;;3.90;1.40;;;4.66;100.00;96371.48;647166;216;31591;-72
2022/04/17 06:35:53;;;;;;;1.52;1.08;;;4.10;1.40;;;4.98;100.00;96372.75;646827;216;31550;-77
2022/04/17 06:38:41;;;;;;;1.05;0.95;;;4.30;1.40;;;5.15;100.00;96375.19;647835;216;31591;-73
2022/04/17 06:41:23;;;;;;;1.70;1.10;;;4.60;1.40;;;5.20;100.00;96373.20;645999;216;31568;-72
2022/04/17 06:44:04;;;;;;;2.03;1.17;;;4.70;1.40;;;5.32;98.93;96369.20;646219;213;42162;-73
2022/04/17 06:46:46;;;;;;;1.35;1.25;;;4.80;1.40;;;5.48;98.71;96361.43;649190;212;31578;-72
2022/04/17 06:49:28;;;;;;;2.70;2.00;;;4.90;1.40;;;5.42;94.64;96364.58;646507;216;31611;-74
2022/04/17 06:52:10;;;;;;;1.70;1.60;;;5.00;1.40;;;5.77;96.35;96364.04;648198;212;31528;-75
2022/04/17 06:54:51;;;;;;;1.37;1.05;;;5.20;1.40;;;5.66;91.81;96366.79;617107;226;31941;-74
2022/04/17 06:57:34;;;;;;;1.15;1.05;;;5.10;1.40;;;6.01;92.22;96357.69;648808;216;31556;-74
2022/04/17 07:00:17;;;;;;;1.02;0.93;;;5.40;1.40;;;6.25;88.37;96362.92;648040;212;31933;-73
2022/04/17 07:02:57;;;;;;;1.65;1.48;;;5.70;1.40;;;6.25;85.73;96365.87;648897;216;32236;-73
2022/04/17 07:05:39;;;;;;;2.10;2.00;;;5.70;1.40;;;6.55;86.53;96361.58;654610;216;23441;-72
2022/04/17 07:08:25;;;;;;;1.40;1.30;;;5.90;1.40;;;6.70;82.20;96361.34;639993;216;31683;-73
2022/04/17 07:11:05;;;;;;;1.80;1.35;;;6.20;1.40;;;6.26;77.33;96360.45;647683;212;31565;-74
2022/04/17 07:13:50;;;;;;;1.45;1.00;;;5.80;1.40;;;6.66;77.52;96360.80;647090;216;31657;-73
2022/04/17 07:16:32;;;;;;;0.90;0.90;;;6.20;1.40;;;6.98;77.30;96362.56;646783;212;31541;-73
2022/04/17 07:19:15;;;;;;;1.10;1.00;;;6.40;1.40;;;6.78;75.81;96359.47;647768;216;31580;-72
2022/04/17 07:21:56;;;;;;;1.95;1.40;;;6.30;1.40;;;6.72;72.60;96363.52;621774;222;32007;-73
2022/04/17 07:24:39;;;;;;;1.98;1.48;;;6.20;1.40;;;6.67;72.97;96363.61;646484;216;31697;-74
2022/04/17 07:27:20;;;;;;;1.10;0.93;;;6.20;1.40;;;6.91;73.74;96362.83;645918;216;32172;-73
2022/04/17 07:30:00;;;;;;;1.30;1.10;;;6.40;1.40;;;7.05;72.16;96358.02;646254;212;31594;-73
2022/04/17 07:32:43;;;;;;;1.58;1.02;;;6.50;1.40;;;7.42;72.73;96353.66;645676;212;32386;-75
2022/04/17 07:35:51;;;;;;;4.07;2.53;;;7.00;1.40;;;7.35;70.67;96354.11;649768;216;32246;-73
2022/04/17 07:38:32;;;;;;;3.10;1.48;;;6.70;1.40;;;7.31;69.12;96359.20;650564;212;31576;-72
2022/04/17 07:41:14;;;;;;;1.10;1.00;;;6.90;1.40;;;7.46;69.48;96353.76;647699;212;42191;-73
2022/04/17 07:43:56;;;;;;;1.60;1.50;;;7.00;1.40;;;7.17;66.95;96350.58;647942;212;31555;-73
2022/04/17 07:46:38;;;;;;;1.50;1.30;;;6.70;1.40;;;7.67;68.52;96356.31;649018;212;42061;-73
2022/04/17 07:49:19;;;;;;;1.20;1.10;;;7.20;1.40;;;7.84;66.37;96344.84;646754;216;42160;-72
2022/04/17 07:52:01;;;;;;;1.50;1.40;;;7.40;1.40;;;8.61;66.78;96347.84;620451;225;42585;-73
2022/04/17 07:54:43;;;;;;;1.40;1.30;;;8.00;1.40;;;8.41;63.13;96344.33;647617;212;42185;-74
2022/04/17 07:57:24;;;;;;;1.17;1.07;;;7.90;1.40;;;8.61;61.96;96347.23;647842;216;31590;-72
2022/04/17 08:00:07;;;;;;;1.65;1.20;;;8.00;1.40;;;8.41;60.17;96350.81;647482;216;31913;-74
2022/04/17 08:02:55;;;;;;;1.60;1.20;;;7.90;1.40;;;8.22;59.07;96340.36;649980;212;31552;-73
2022/04/17 08:05:38;;;;;;;1.30;1.20;;;7.70;1.40;;;8.55;60.45;96340.08;648889;216;31518;-73
2022/04/17 08:08:19;;;;;;;1.50;1.10;;;8.10;1.40;;;8.71;60.45;96339.89;637784;212;31734;-74
2022/04/17 08:11:02;;;;;;;1.70;1.30;;;8.20;1.40;;;8.77;59.13;96334.99;648471;216;31595;-73
2022/04/17 08:13:51;;;;;;;2.40;1.70;;;8.30;1.40;;;8.96;60.87;96328.89;646737;216;31509;-76
2022/04/17 08:16:32;;;;;;;2.57;1.30;;;8.40;1.40;;;8.86;58.03;96328.34;621270;226;32052;-74
2022/04/17 08:19:14;;;;;;;1.30;1.10;;;8.40;1.40;;;9.19;58.80;96318.77;647134;216;31550;-73
2022/04/17 08:22:00;;;;;;;1.40;1.30;;;8.80;1.40;;;9.73;59.06;96331.23;648470;212;31560;-74
2022/04/17 08:24:41;;;;;;;1.37;1.03;;;9.30;1.40;;;9.41;57.35;96321.71;647775;216;31529;-73
2022/04/17 08:27:23;;;;;;;3.87;1.50;;;8.90;1.40;;;8.63;57.54;96321.83;647923;212;31623;-73
2022/04/17 08:30:06;;;;;;;1.20;1.10;;;8.20;1.40;;;9.12;59.53;96323.05;646705;212;31511;-74
2022/04/17 08:32:48;;;;;;;1.42;1.05;;;8.50;1.40;;;9.39;60.69;96317.71;647394;212;31538;-73
2022/04/17 08:35:55;;;;;;;1.35;1.20;;;9.00;1.40;;;9.76;58.71;96312.53;622824;226;32030;-74
2022/04/17 08:38:36;;;;;;;2.27;1.20;;;9.20;1.40;;;10.33;59.86;96304.08;648720;216;31753;-73
2022/04/17 08:41:18;;;;;;;2.17;1.00;;;9.60;1.40;;;10.77;56.08;96295.66;646624;216;31576;-75
2022/04/17 08:44:00;;;;;;;1.30;1.20;;;9.90;1.40;;;10.80;54.41;96307.97;647212;212;31650;-73
2022/04/17 08:46:42;;;;;;;1.48;1.10;;;9.90;1.40;;;10.70;55.88;96304.66;645331;212;31497;-73
2022/04/17 08:49:25;;;;;;;1.40;1.30;;;10.10;1.40;;;11.26;54.78;96298.08;646314;212;31676;-73
2022/04/17 08:52:08;;;;;;;2.60;1.52;;;10.30;1.40;;;11.29;53.44;96302.06;648489;212;31554;-74
2022/04/17 08:54:50;;;;;;;1.07;1.03;;;9.90;1.40;;;10.34;55.29;96297.95;647597;216;42233;-74
2022/04/17 08:57:35;;;;;;;1.20;1.10;;;10.00;1.40;;;11.02;54.01;96290.86;647197;212;31491;-75
2022/04/17 09:00:23;;;;;;;2.37;1.17;;;10.50;1.40;;;10.71;51.89;96295.92;630896;217;31756;-75
2022/04/17 09:03:13;;;;;;;1.43;1.33;;;10.70;1.40;;;12.12;48.41;96288.53;647140;216;42148;-73
2022/04/17 09:05:53;;;;;;;1.25;1.15;;;14.40;1.40;;;15.21;47.14;96276.45;646221;212;32176;-74
2022/04/17 09:08:35;;;;;;;2.20;1.70;;;17.10;1.40;;;14.26;42.02;96275.81;611294;226;32749;-73
2022/04/17 09:11:17;;;;;;;1.75;1.50;;;15.80;1.40;;;14.03;43.58;96276.40;617829;226;43052;-73
2022/04/17 09:14:01;;;;;;;1.90;1.50;;;14.20;1.40;;;13.88;44.12;96277.41;647661;216;31566;-74
2022/04/17 09:16:43;;;;;;;1.45;1.30;;;15.10;1.40;;;14.15;42.78;96267.78;648472;212;32085;-75
2022/04/17 09:19:24;;;;;;;2.70;1.40;;;15.10;1.40;;;14.37;45.42;96269.80;619547;226;33053;-74
2022/04/17 09:22:09;;;;;;;1.65;1.55;;;15.90;1.40;;;14.01;41.77;96271.81;650784;212;31525;-74
2022/04/17 09:24:50;;;;;;;1.70;1.37;;;14.50;1.40;;;15.73;44.58;96259.77;646366;216;42801;-75
2022/04/17 09:27:35;;;;;;;2.05;1.33;;;16.40;1.40;;;15.44;41.70;96253.77;648048;212;31578;-77
2022/04/17 09:30:26;;;;;;;2.10;1.60;;;16.60;1.40;;;19.22;38.78;96244.51;646111;216;31684;-76
2022/04/17 09:38:26;;;;;;;2.10;1.37;;;17.30;1.40;;;14.45;38.86;96241.98;647031;216;31515;-75
2022/04/17 09:41:10;;;;;;;1.60;1.50;;;13.20;1.40;;;15.38;42.06;96235.94;618605;226;31915;-74
2022/04/17 09:43:56;;;;;;;2.20;1.50;;;17.00;1.40;;;14.88;40.16;96234.88;641936;215;32081;-75
2022/04/17 09:46:37;;;;;;;1.52;1.30;;;14.60;1.40;;;16.29;40.25;96219.00;647091;216;31692;-74
2022/04/17 09:49:25;;;;;;;1.50;1.40;;;17.70;1.40;;;19.73;36.99;96208.31;648570;216;32100;-75
2022/04/17 09:52:08;;;;;;;1.30;1.10;;;20.70;1.40;;;14.29;36.15;96229.59;649879;216;32100;-75
2022/04/17 09:54:50;;;;;;;1.65;1.10;;;14.30;1.40;;;15.74;38.82;96211.55;646398;216;31676;-74
2022/04/17 09:57:34;;;;;;;2.10;1.20;;;16.80;1.40;;;14.44;38.05;96215.11;649711;216;31617;-77
2022/04/17 10:02:52;;;;;;;1.20;1.10;;;19.10;1.40;;;20.46;33.87;96185.91;647343;216;31623;-76
2022/04/17 10:05:39;;;;;;;2.17;1.50;;;20.40;1.40;;;20.48;34.19;96181.29;647255;216;42140;-75
2022/04/17 10:08:21;;;;;;;1.95;1.60;;;20.20;1.40;;;20.69;29.67;96184.43;641664;212;31784;-75
2022/04/17 10:11:02;;;;;;;1.50;1.40;;;19.40;1.40;;;18.85;32.58;96189.90;645833;216;31878;-75
2022/04/17 10:13:46;;;;;;;2.37;1.70;;;18.40;1.40;;;15.26;35.00;96189.20;648637;212;31639;-76
2022/04/17 10:16:35;;;;;;;2.03;1.50;;;15.50;1.40;;;19.00;36.13;96173.98;647220;216;32109;-75
2022/04/17 10:19:17;;;;;;;1.70;1.60;;;19.20;1.40;;;20.69;32.90;96163.47;618821;222;33466;-75
2022/04/17 10:22:05;;;;;;;2.75;1.70;;;20.00;1.40;;;19.05;30.45;96167.52;648256;216;31598;-77
2022/04/17 10:24:51;;;;;;;1.90;1.30;;;18.60;1.40;;;21.68;32.63;96156.55;647118;216;31722;-76
2022/04/17 10:27:39;;;;;;;1.73;1.62;;;20.20;1.40;;;21.84;31.65;96152.47;646103;216;42188;-76
2022/04/17 10:30:24;;;;;;;1.60;1.42;;;21.00;1.40;;;24.40;28.26;96137.42;620828;226;31805;-78
2022/04/17 10:36:28;;;;;;;1.70;1.30;;;17.60;1.40;;;21.12;31.24;96149.59;646752;216;42432;-76
2022/04/17 10:39:25;;;;;;;2.20;1.60;;;20.20;1.40;;;24.85;27.59;96133.57;651422;216;31657;-77
2022/04/17 10:42:10;;;;;;;2.55;2.10;;;21.00;1.40;;;22.26;30.58;96143.13;620546;222;32071;-76
2022/04/17 10:45:08;;;;;;;1.48;1.37;;;20.10;1.40;;;18.52;30.09;96138.91;620544;222;32063;-77
2022/04/17 10:48:03;;;;;;;1.42;1.30;;;17.90;1.40;;;20.75;30.04;96128.64;618831;222;32405;-76
2022/04/17 10:50:51;;;;;;;1.73;1.30;;;19.30;1.40;;;24.38;28.53;96109.59;648018;216;31562;-77
2022/04/17 10:53:35;;;;;;;1.67;1.58;;;22.00;1.40;;;25.55;26.69;96111.33;646628;216;31535;-76
2022/04/17 10:56:17;;;;;;;1.85;1.48;;;21.20;1.40;;;21.48;26.53;96131.92;645761;216;42160;-76
2022/04/17 10:59:00;;;;;;;1.60;1.50;;;18.60;1.40;;;21.80;27.09;96124.31;642114;219;31556;-75
2022/04/17 11:01:53;;;;;;;1.50;1.37;;;19.50;1.40;;;20.52;28.46;96122.33;622673;222;42541;-78
2022/04/17 11:04:41;;;;;;;2.35;1.05;;;17.40;1.40;;;22.89;29.01;96107.22;647020;216;32129;-75
2022/04/17 11:07:27;;;;;;;1.23;1.10;;;20.60;1.40;;;24.99;27.61;96110.88;617936;226;32114;-76
2022/04/17 11:10:19;;;;;;;1.75;1.65;;;21.20;1.40;;;22.20;28.46;96118.06;648552;216;31528;-78
2022/04/17 11:13:06;;;;;;;1.65;1.52;;;18.90;1.40;;;21.63;30.78;96122.93;645626;216;31538;-76
2022/04/17 11:15:56;;;;;;;1.40;1.30;;;19.30;1.40;;;20.87;30.54;96123.24;646292;216;31816;-79
2022/04/17 11:18:46;;;;;;;1.58;1.33;;;19.10;1.40;;;24.49;27.43;96106.47;648937;212;42157;-76
2022/04/17 11:21:38;;;;;;;1.77;1.67;;;19.80;1.40;;;18.44;30.57;96118.50;632388;221;31840;-77
2022/04/17 11:24:21;;;;;;;2.17;1.85;;;17.70;1.40;;;24.67;27.64;96104.44;619290;226;31936;-75
2022/04/17 11:27:09;;;;;;;2.30;1.50;;;20.20;1.40;;;24.91;27.68;96100.07;647564;212;31536;-74
2022/04/17 11:29:51;;;;;;;1.50;1.40;;;20.10;1.40;;;24.22;27.38;96101.94;619196;226;31969;-77
2022/04/17 11:32:55;;;;;;;2.03;1.83;;;20.10;1.40;;;21.42;30.19;96110.32;647750;216;31490;-77
2022/04/17 11:35:51;;;;;;;2.28;1.40;;;19.50;1.40;;;24.88;27.85;96098.98;646438;216;39172;-77
2022/04/17 11:38:35;;;;;;;3.17;2.30;;;21.40;1.40;;;25.28;26.71;96094.79;621086;222;32008;-76
2022/04/17 11:41:23;;;;;;;1.77;1.67;;;21.60;1.40;;;22.10;28.65;96105.13;648305;216;42292;-77
2022/04/17 11:44:05;;;;;;;2.10;1.90;;;19.40;1.40;;;19.54;31.25;96104.63;649108;216;31542;-78
2022/04/17 11:46:53;;;;;;;2.15;1.95;;;18.00;1.40;;;23.49;28.69;96099.95;646685;216;31517;-77
2022/04/17 11:49:40;;;;;;;2.30;2.10;;;19.70;1.40;;;21.30;29.97;96102.62;647159;216;31705;-77
2022/04/17 11:52:28;;;;;;;2.12;2.00;;;19.70;1.40;;;25.75;26.80;96069.91;646806;216;31517;-76
2022/04/17 11:55:15;;;;;;;3.80;1.80;;;21.30;1.40;;;25.21;26.35;96084.55;646989;216;32262;-78
2022/04/17 11:58:03;;;;;;;2.08;1.80;;;19.90;1.40;;;18.35;30.42;96099.70;644845;212;32186;-76
2022/04/17 12:00:59;;;;;;;2.10;1.80;;;16.70;1.40;;;18.48;31.07;96095.72;649609;216;31615;-77
2022/04/17 12:03:48;;;;;;;3.58;1.70;;;15.40;1.40;;;21.37;29.25;96082.56;647166;212;31561;-75
2022/04/17 12:06:32;;;;;;;2.03;1.75;;;17.30;1.40;;;22.12;27.46;96075.80;647112;216;31619;-75
2022/04/17 12:09:12;;;;;;;1.60;1.50;;;17.20;1.40;;;22.08;28.56;96073.81;609758;225;32101;-76
2022/04/17 12:11:53;;;;;;;3.20;1.70;;;18.80;1.40;;;20.94;28.26;96079.38;618427;222;31910;-75